sensor_id;sensor_type;location;lat;lon;timestamp;P1;durP1;ratioP1;P2;durP2;ratioP2
56255;SDS011;57229;51.432;-2.598;2023-07-13T00:00:34;8.95;;;2.85;;
56255;SDS011;57229;51.432;-2.598;2023-07-13T00:03:01;16.08;;;3.30;;
56255;SDS011;57229;51.432;-2.598;2023-07-13T00:05:27;8.30;;;3.17;;
56255;SDS011;57229;51.432;-2.598;2023-07-13T00:07:53;13.20;;;3.15;;
56255;SDS011;57229;51.432;-2.598;2023-07-13T00:10:19;11.10;;;3.15;;
56255;SDS011;57229;51.432;-2.598;2023-07-13T00:12:46;8.82;;;2.92;;
56255;SDS011;57229;51.432;-2.598;2023-07-13T00:15:18;6.90;;;3.28;;
56255;SDS011;57229;51.432;-2.598;2023-07-13T00:17:50;13.30;;;3.88;;
56255;SDS011;57229;51.432;-2.598;2023-07-13T00:20:17;10.85;;;3.38;;
56255;SDS011;57229;51.432;-2.598;2023-07-13T00:22:43;11.93;;;3.28;;
56255;SDS011;57229;51.432;-2.598;2023-07-13T00:25:12;10.10;;;3.35;;
56255;SDS011;57229;51.432;-2.598;2023-07-13T00:27:41;8.27;;;3.22;;
56255;SDS011;57229;51.432;-2.598;2023-07-13T00:30:08;10.02;;;3.15;;
56255;SDS011;57229;51.432;-2.598;2023-07-13T00:32:35;8.55;;;3.17;;
56255;SDS011;57229;51.432;-2.598;2023-07-13T00:35:03;12.43;;;3.90;;
56255;SDS011;57229;51.432;-2.598;2023-07-13T00:37:29;9.32;;;4.45;;
56255;SDS011;57229;51.432;-2.598;2023-07-13T00:39:55;13.40;;;3.78;;
56255;SDS011;57229;51.432;-2.598;2023-07-13T00:42:24;11.80;;;4.00;;
56255;SDS011;57229;51.432;-2.598;2023-07-13T00:47:37;9.10;;;3.42;;
56255;SDS011;57229;51.432;-2.598;2023-07-13T00:50:04;13.85;;;3.72;;
56255;SDS011;57229;51.432;-2.598;2023-07-13T00:52:35;11.82;;;3.50;;
56255;SDS011;57229;51.432;-2.598;2023-07-13T00:55:04;12.52;;;3.40;;
56255;SDS011;57229;51.432;-2.598;2023-07-13T00:57:30;10.52;;;3.28;;
56255;SDS011;57229;51.432;-2.598;2023-07-13T00:59:57;7.25;;;3.10;;
56255;SDS011;57229;51.432;-2.598;2023-07-13T01:02:25;10.38;;;3.30;;
56255;SDS011;57229;51.432;-2.598;2023-07-13T01:04:53;7.78;;;3.50;;
56255;SDS011;57229;51.432;-2.598;2023-07-13T01:07:21;10.38;;;3.95;;
56255;SDS011;57229;51.432;-2.598;2023-07-13T01:09:47;15.15;;;3.97;;
56255;SDS011;57229;51.432;-2.598;2023-07-13T01:12:12;10.32;;;3.70;;
56255;SDS011;57229;51.432;-2.598;2023-07-13T01:14:38;13.48;;;4.07;;
56255;SDS011;57229;51.432;-2.598;2023-07-13T01:17:04;10.02;;;3.60;;
56255;SDS011;57229;51.432;-2.598;2023-07-13T01:19:37;14.73;;;4.15;;
56255;SDS011;57229;51.432;-2.598;2023-07-13T01:22:05;11.90;;;3.88;;
56255;SDS011;57229;51.432;-2.598;2023-07-13T01:24:33;8.63;;;3.63;;
56255;SDS011;57229;51.432;-2.598;2023-07-13T01:27:09;11.50;;;3.53;;
56255;SDS011;57229;51.432;-2.598;2023-07-13T01:29:38;12.23;;;3.22;;
56255;SDS011;57229;51.432;-2.598;2023-07-13T01:32:07;8.88;;;3.50;;
56255;SDS011;57229;51.432;-2.598;2023-07-13T01:34:35;12.23;;;3.33;;
56255;SDS011;57229;51.432;-2.598;2023-07-13T01:37:02;10.50;;;3.45;;
56255;SDS011;57229;51.432;-2.598;2023-07-13T01:39:28;8.32;;;3.60;;
56255;SDS011;57229;51.432;-2.598;2023-07-13T01:41:54;10.15;;;3.88;;
56255;SDS011;57229;51.432;-2.598;2023-07-13T01:44:20;8.07;;;3.78;;
56255;SDS011;57229;51.432;-2.598;2023-07-13T01:46:46;9.82;;;3.67;;
56255;SDS011;57229;51.432;-2.598;2023-07-13T01:49:12;8.82;;;3.80;;
56255;SDS011;57229;51.432;-2.598;2023-07-13T01:51:37;11.55;;;3.60;;
56255;SDS011;57229;51.432;-2.598;2023-07-13T01:54:03;12.75;;;3.25;;
56255;SDS011;57229;51.432;-2.598;2023-07-13T01:56:28;10.85;;;3.28;;
56255;SDS011;57229;51.432;-2.598;2023-07-13T01:58:54;11.98;;;3.42;;
56255;SDS011;57229;51.432;-2.598;2023-07-13T02:01:20;13.30;;;3.20;;
56255;SDS011;57229;51.432;-2.598;2023-07-13T02:03:45;11.10;;;3.03;;
56255;SDS011;57229;51.432;-2.598;2023-07-13T02:06:11;11.25;;;3.20;;
56255;SDS011;57229;51.432;-2.598;2023-07-13T02:08:37;7.47;;;3.63;;
56255;SDS011;57229;51.432;-2.598;2023-07-13T02:11:03;10.00;;;3.72;;
56255;SDS011;57229;51.432;-2.598;2023-07-13T02:13:28;7.35;;;3.88;;
56255;SDS011;57229;51.432;-2.598;2023-07-13T02:15:54;6.93;;;3.45;;
56255;SDS011;57229;51.432;-2.598;2023-07-13T02:18:20;9.82;;;3.10;;
56255;SDS011;57229;51.432;-2.598;2023-07-13T02:20:47;7.35;;;3.33;;
56255;SDS011;57229;51.432;-2.598;2023-07-13T02:23:12;8.32;;;2.95;;
56255;SDS011;57229;51.432;-2.598;2023-07-13T02:25:38;7.22;;;3.13;;
56255;SDS011;57229;51.432;-2.598;2023-07-13T02:28:13;12.32;;;3.80;;
56255;SDS011;57229;51.432;-2.598;2023-07-13T02:30:38;12.82;;;3.63;;
56255;SDS011;57229;51.432;-2.598;2023-07-13T02:33:04;7.15;;;3.17;;
56255;SDS011;57229;51.432;-2.598;2023-07-13T02:35:30;11.30;;;3.70;;
56255;SDS011;57229;51.432;-2.598;2023-07-13T02:37:56;13.25;;;3.35;;
56255;SDS011;57229;51.432;-2.598;2023-07-13T02:40:22;10.63;;;3.53;;
56255;SDS011;57229;51.432;-2.598;2023-07-13T02:42:48;9.90;;;3.30;;
56255;SDS011;57229;51.432;-2.598;2023-07-13T02:45:14;12.63;;;3.13;;
56255;SDS011;57229;51.432;-2.598;2023-07-13T02:47:40;6.93;;;2.78;;
56255;SDS011;57229;51.432;-2.598;2023-07-13T02:50:06;4.30;;;2.65;;
56255;SDS011;57229;51.432;-2.598;2023-07-13T02:52:32;8.38;;;3.17;;
56255;SDS011;57229;51.432;-2.598;2023-07-13T02:54:58;5.68;;;2.88;;
56255;SDS011;57229;51.432;-2.598;2023-07-13T02:57:23;10.98;;;3.33;;
56255;SDS011;57229;51.432;-2.598;2023-07-13T02:59:49;8.45;;;2.90;;
56255;SDS011;57229;51.432;-2.598;2023-07-13T03:02:15;8.50;;;3.08;;
56255;SDS011;57229;51.432;-2.598;2023-07-13T03:04:40;8.98;;;3.17;;
56255;SDS011;57229;51.432;-2.598;2023-07-13T03:07:06;7.80;;;2.92;;
56255;SDS011;57229;51.432;-2.598;2023-07-13T03:09:33;10.73;;;3.10;;
56255;SDS011;57229;51.432;-2.598;2023-07-13T03:11:59;7.80;;;3.10;;
56255;SDS011;57229;51.432;-2.598;2023-07-13T03:14:25;8.18;;;3.35;;
56255;SDS011;57229;51.432;-2.598;2023-07-13T03:16:51;8.18;;;2.90;;
56255;SDS011;57229;51.432;-2.598;2023-07-13T03:19:17;9.40;;;2.97;;
56255;SDS011;57229;51.432;-2.598;2023-07-13T03:21:46;11.27;;;3.15;;
56255;SDS011;57229;51.432;-2.598;2023-07-13T03:24:11;9.38;;;3.17;;
56255;SDS011;57229;51.432;-2.598;2023-07-13T03:26:37;6.15;;;3.25;;
56255;SDS011;57229;51.432;-2.598;2023-07-13T03:29:03;9.45;;;2.97;;
56255;SDS011;57229;51.432;-2.598;2023-07-13T03:31:29;7.85;;;3.08;;
56255;SDS011;57229;51.432;-2.598;2023-07-13T03:34:00;8.23;;;3.55;;
56255;SDS011;57229;51.432;-2.598;2023-07-13T03:36:26;11.65;;;3.55;;
56255;SDS011;57229;51.432;-2.598;2023-07-13T03:38:55;9.77;;;3.08;;
56255;SDS011;57229;51.432;-2.598;2023-07-13T03:41:22;9.30;;;3.15;;
56255;SDS011;57229;51.432;-2.598;2023-07-13T03:43:49;10.10;;;3.65;;
56255;SDS011;57229;51.432;-2.598;2023-07-13T03:46:15;10.45;;;3.50;;
56255;SDS011;57229;51.432;-2.598;2023-07-13T03:48:41;7.57;;;3.25;;
56255;SDS011;57229;51.432;-2.598;2023-07-13T03:51:09;11.60;;;3.63;;
56255;SDS011;57229;51.432;-2.598;2023-07-13T03:53:37;6.50;;;3.20;;
56255;SDS011;57229;51.432;-2.598;2023-07-13T03:56:04;9.07;;;3.15;;
56255;SDS011;57229;51.432;-2.598;2023-07-13T03:58:34;7.75;;;3.08;;
56255;SDS011;57229;51.432;-2.598;2023-07-13T04:01:02;6.28;;;3.20;;
56255;SDS011;57229;51.432;-2.598;2023-07-13T04:03:29;6.60;;;3.97;;
56255;SDS011;57229;51.432;-2.598;2023-07-13T04:05:57;7.28;;;3.35;;
56255;SDS011;57229;51.432;-2.598;2023-07-13T04:08:28;14.65;;;3.90;;
56255;SDS011;57229;51.432;-2.598;2023-07-13T04:10:55;8.48;;;3.60;;
56255;SDS011;57229;51.432;-2.598;2023-07-13T04:13:21;9.90;;;3.42;;
56255;SDS011;57229;51.432;-2.598;2023-07-13T04:15:47;12.15;;;3.38;;
56255;SDS011;57229;51.432;-2.598;2023-07-13T04:18:13;13.32;;;4.05;;
56255;SDS011;57229;51.432;-2.598;2023-07-13T04:20:39;15.88;;;3.55;;
56255;SDS011;57229;51.432;-2.598;2023-07-13T04:23:05;7.75;;;3.33;;
56255;SDS011;57229;51.432;-2.598;2023-07-13T04:25:30;9.32;;;3.33;;
56255;SDS011;57229;51.432;-2.598;2023-07-13T04:27:56;8.85;;;3.40;;
56255;SDS011;57229;51.432;-2.598;2023-07-13T04:30:22;8.18;;;4.00;;
56255;SDS011;57229;51.432;-2.598;2023-07-13T04:32:49;8.45;;;3.35;;
56255;SDS011;57229;51.432;-2.598;2023-07-13T04:35:16;6.38;;;3.28;;
56255;SDS011;57229;51.432;-2.598;2023-07-13T04:37:43;7.38;;;3.70;;
56255;SDS011;57229;51.432;-2.598;2023-07-13T04:40:08;7.18;;;3.20;;
56255;SDS011;57229;51.432;-2.598;2023-07-13T04:42:37;11.10;;;4.32;;
56255;SDS011;57229;51.432;-2.598;2023-07-13T04:45:04;8.80;;;3.72;;
56255;SDS011;57229;51.432;-2.598;2023-07-13T04:47:31;8.88;;;3.72;;
56255;SDS011;57229;51.432;-2.598;2023-07-13T04:49:57;12.65;;;4.15;;
56255;SDS011;57229;51.432;-2.598;2023-07-13T04:52:22;10.07;;;3.78;;
56255;SDS011;57229;51.432;-2.598;2023-07-13T04:54:48;10.52;;;3.90;;
56255;SDS011;57229;51.432;-2.598;2023-07-13T04:57:14;7.70;;;3.67;;
56255;SDS011;57229;51.432;-2.598;2023-07-13T04:59:39;10.30;;;4.10;;
56255;SDS011;57229;51.432;-2.598;2023-07-13T05:02:05;9.10;;;3.55;;
56255;SDS011;57229;51.432;-2.598;2023-07-13T05:04:31;12.73;;;3.53;;
56255;SDS011;57229;51.432;-2.598;2023-07-13T05:06:56;7.65;;;3.78;;
56255;SDS011;57229;51.432;-2.598;2023-07-13T05:09:22;9.07;;;3.53;;
56255;SDS011;57229;51.432;-2.598;2023-07-13T05:11:48;7.25;;;3.33;;
56255;SDS011;57229;51.432;-2.598;2023-07-13T05:14:13;7.75;;;2.83;;
56255;SDS011;57229;51.432;-2.598;2023-07-13T05:16:40;5.53;;;2.97;;
56255;SDS011;57229;51.432;-2.598;2023-07-13T05:19:06;6.03;;;3.03;;
56255;SDS011;57229;51.432;-2.598;2023-07-13T05:21:31;9.82;;;3.90;;
56255;SDS011;57229;51.432;-2.598;2023-07-13T05:23:57;7.75;;;3.20;;
56255;SDS011;57229;51.432;-2.598;2023-07-13T05:26:22;4.80;;;2.78;;
56255;SDS011;57229;51.432;-2.598;2023-07-13T05:28:48;6.55;;;2.70;;
56255;SDS011;57229;51.432;-2.598;2023-07-13T05:31:13;7.50;;;2.95;;
56255;SDS011;57229;51.432;-2.598;2023-07-13T05:33:39;9.32;;;2.78;;
56255;SDS011;57229;51.432;-2.598;2023-07-13T05:36:05;6.95;;;3.25;;
56255;SDS011;57229;51.432;-2.598;2023-07-13T05:38:32;4.90;;;3.10;;
56255;SDS011;57229;51.432;-2.598;2023-07-13T05:40:58;5.00;;;2.60;;
56255;SDS011;57229;51.432;-2.598;2023-07-13T05:43:24;7.05;;;2.60;;
56255;SDS011;57229;51.432;-2.598;2023-07-13T05:45:51;4.95;;;2.67;;
56255;SDS011;57229;51.432;-2.598;2023-07-13T05:48:20;4.40;;;2.70;;
56255;SDS011;57229;51.432;-2.598;2023-07-13T05:50:46;7.82;;;2.60;;
56255;SDS011;57229;51.432;-2.598;2023-07-13T05:53:12;10.27;;;2.88;;
56255;SDS011;57229;51.432;-2.598;2023-07-13T05:55:47;7.35;;;2.67;;
56255;SDS011;57229;51.432;-2.598;2023-07-13T05:58:15;7.43;;;3.10;;
56255;SDS011;57229;51.432;-2.598;2023-07-13T06:00:41;7.40;;;3.22;;
56255;SDS011;57229;51.432;-2.598;2023-07-13T06:03:07;5.13;;;2.78;;
56255;SDS011;57229;51.432;-2.598;2023-07-13T06:05:33;9.15;;;2.90;;
56255;SDS011;57229;51.432;-2.598;2023-07-13T06:08:01;5.32;;;2.75;;
56255;SDS011;57229;51.432;-2.598;2023-07-13T06:10:27;7.63;;;2.60;;
56255;SDS011;57229;51.432;-2.598;2023-07-13T06:12:53;7.85;;;2.97;;
56255;SDS011;57229;51.432;-2.598;2023-07-13T06:15:19;8.18;;;2.95;;
56255;SDS011;57229;51.432;-2.598;2023-07-13T06:17:45;11.30;;;3.28;;
56255;SDS011;57229;51.432;-2.598;2023-07-13T06:20:11;5.40;;;2.30;;
56255;SDS011;57229;51.432;-2.598;2023-07-13T06:22:37;6.85;;;2.60;;
56255;SDS011;57229;51.432;-2.598;2023-07-13T06:25:02;6.05;;;2.90;;
56255;SDS011;57229;51.432;-2.598;2023-07-13T06:27:28;5.95;;;2.10;;
56255;SDS011;57229;51.432;-2.598;2023-07-13T06:29:54;9.13;;;2.45;;
56255;SDS011;57229;51.432;-2.598;2023-07-13T06:32:19;8.57;;;2.50;;
56255;SDS011;57229;51.432;-2.598;2023-07-13T06:34:45;7.00;;;2.50;;
56255;SDS011;57229;51.432;-2.598;2023-07-13T06:37:11;5.15;;;2.42;;
56255;SDS011;57229;51.432;-2.598;2023-07-13T06:39:39;4.55;;;2.50;;
56255;SDS011;57229;51.432;-2.598;2023-07-13T06:42:05;4.80;;;2.28;;
56255;SDS011;57229;51.432;-2.598;2023-07-13T06:44:31;8.07;;;2.53;;
56255;SDS011;57229;51.432;-2.598;2023-07-13T06:46:57;10.32;;;2.40;;
56255;SDS011;57229;51.432;-2.598;2023-07-13T06:49:22;5.95;;;2.00;;
56255;SDS011;57229;51.432;-2.598;2023-07-13T06:51:48;6.60;;;2.42;;
56255;SDS011;57229;51.432;-2.598;2023-07-13T06:54:13;7.25;;;2.08;;
56255;SDS011;57229;51.432;-2.598;2023-07-13T06:56:39;3.75;;;2.22;;
56255;SDS011;57229;51.432;-2.598;2023-07-13T06:59:04;6.72;;;2.28;;
56255;SDS011;57229;51.432;-2.598;2023-07-13T07:01:30;4.35;;;2.80;;
56255;SDS011;57229;51.432;-2.598;2023-07-13T07:03:56;4.28;;;1.80;;
56255;SDS011;57229;51.432;-2.598;2023-07-13T07:06:22;7.18;;;2.33;;
56255;SDS011;57229;51.432;-2.598;2023-07-13T07:08:48;3.75;;;2.38;;
56255;SDS011;57229;51.432;-2.598;2023-07-13T07:11:19;5.80;;;2.47;;
56255;SDS011;57229;51.432;-2.598;2023-07-13T07:13:50;3.08;;;2.20;;
56255;SDS011;57229;51.432;-2.598;2023-07-13T07:16:16;3.90;;;2.25;;
56255;SDS011;57229;51.432;-2.598;2023-07-13T07:18:43;5.70;;;2.40;;
56255;SDS011;57229;51.432;-2.598;2023-07-13T07:21:09;4.45;;;2.15;;
56255;SDS011;57229;51.432;-2.598;2023-07-13T07:23:35;5.82;;;2.33;;
56255;SDS011;57229;51.432;-2.598;2023-07-13T07:26:01;3.83;;;2.20;;
56255;SDS011;57229;51.432;-2.598;2023-07-13T07:28:26;4.90;;;2.20;;
56255;SDS011;57229;51.432;-2.598;2023-07-13T07:30:53;4.20;;;1.98;;
56255;SDS011;57229;51.432;-2.598;2023-07-13T07:33:20;4.70;;;2.88;;
56255;SDS011;57229;51.432;-2.598;2023-07-13T07:35:46;3.50;;;2.17;;
56255;SDS011;57229;51.432;-2.598;2023-07-13T07:38:12;5.43;;;2.03;;
56255;SDS011;57229;51.432;-2.598;2023-07-13T07:40:38;4.10;;;1.70;;
56255;SDS011;57229;51.432;-2.598;2023-07-13T07:43:05;4.07;;;1.90;;
56255;SDS011;57229;51.432;-2.598;2023-07-13T07:45:34;4.72;;;1.90;;
56255;SDS011;57229;51.432;-2.598;2023-07-13T07:48:02;4.68;;;2.03;;
56255;SDS011;57229;51.432;-2.598;2023-07-13T07:50:29;4.13;;;1.90;;
56255;SDS011;57229;51.432;-2.598;2023-07-13T07:52:55;5.05;;;2.30;;
56255;SDS011;57229;51.432;-2.598;2023-07-13T07:55:21;3.90;;;2.20;;
56255;SDS011;57229;51.432;-2.598;2023-07-13T07:57:52;2.78;;;2.03;;
56255;SDS011;57229;51.432;-2.598;2023-07-13T08:00:18;3.60;;;2.30;;
56255;SDS011;57229;51.432;-2.598;2023-07-13T08:02:44;4.68;;;2.25;;
56255;SDS011;57229;51.432;-2.598;2023-07-13T08:05:10;4.75;;;2.15;;
56255;SDS011;57229;51.432;-2.598;2023-07-13T08:07:36;3.42;;;2.10;;
56255;SDS011;57229;51.432;-2.598;2023-07-13T08:10:03;5.90;;;2.05;;
56255;SDS011;57229;51.432;-2.598;2023-07-13T08:12:29;6.93;;;2.08;;
56255;SDS011;57229;51.432;-2.598;2023-07-13T08:14:54;5.65;;;2.67;;
56255;SDS011;57229;51.432;-2.598;2023-07-13T08:17:22;6.88;;;2.53;;
56255;SDS011;57229;51.432;-2.598;2023-07-13T08:19:49;6.65;;;2.17;;
56255;SDS011;57229;51.432;-2.598;2023-07-13T08:22:15;5.07;;;2.17;;
56255;SDS011;57229;51.432;-2.598;2023-07-13T08:24:40;4.20;;;2.00;;
56255;SDS011;57229;51.432;-2.598;2023-07-13T08:27:07;5.88;;;1.98;;
56255;SDS011;57229;51.432;-2.598;2023-07-13T08:29:33;4.40;;;2.15;;
56255;SDS011;57229;51.432;-2.598;2023-07-13T08:31:59;3.03;;;2.03;;
56255;SDS011;57229;51.432;-2.598;2023-07-13T08:34:24;3.13;;;2.00;;
56255;SDS011;57229;51.432;-2.598;2023-07-13T08:36:50;5.25;;;2.15;;
56255;SDS011;57229;51.432;-2.598;2023-07-13T08:39:16;6.82;;;2.50;;
56255;SDS011;57229;51.432;-2.598;2023-07-13T08:41:41;6.32;;;2.10;;
56255;SDS011;57229;51.432;-2.598;2023-07-13T08:44:15;6.25;;;2.28;;
56255;SDS011;57229;51.432;-2.598;2023-07-13T08:46:48;4.15;;;2.65;;
56255;SDS011;57229;51.432;-2.598;2023-07-13T08:49:17;5.38;;;2.13;;
56255;SDS011;57229;51.432;-2.598;2023-07-13T08:51:49;5.30;;;2.25;;
56255;SDS011;57229;51.432;-2.598;2023-07-13T08:56:54;4.55;;;1.90;;
56255;SDS011;57229;51.432;-2.598;2023-07-13T08:59:23;3.97;;;1.75;;
56255;SDS011;57229;51.432;-2.598;2023-07-13T09:05:03;4.10;;;1.95;;
56255;SDS011;57229;51.432;-2.598;2023-07-13T09:13:53;2.75;;;1.30;;
56255;SDS011;57229;51.432;-2.598;2023-07-13T09:16:26;3.22;;;1.55;;
56255;SDS011;57229;51.432;-2.598;2023-07-13T09:18:52;3.67;;;1.48;;
56255;SDS011;57229;51.432;-2.598;2023-07-13T09:21:25;2.95;;;1.45;;
56255;SDS011;57229;51.432;-2.598;2023-07-13T09:24:22;3.88;;;1.30;;
56255;SDS011;57229;51.432;-2.598;2023-07-13T09:27:27;4.95;;;1.40;;
56255;SDS011;57229;51.432;-2.598;2023-07-13T09:30:02;2.03;;;1.40;;
56255;SDS011;57229;51.432;-2.598;2023-07-13T09:32:45;2.88;;;1.23;;
56255;SDS011;57229;51.432;-2.598;2023-07-13T09:35:16;6.25;;;1.95;;
56255;SDS011;57229;51.432;-2.598;2023-07-13T09:37:46;3.65;;;1.60;;
56255;SDS011;57229;51.432;-2.598;2023-07-13T09:40:24;4.55;;;1.60;;
56255;SDS011;57229;51.432;-2.598;2023-07-13T09:42:55;3.67;;;1.38;;
56255;SDS011;57229;51.432;-2.598;2023-07-13T09:45:27;5.95;;;1.65;;
56255;SDS011;57229;51.432;-2.598;2023-07-13T09:48:04;2.80;;;1.42;;
56255;SDS011;57229;51.432;-2.598;2023-07-13T09:50:33;4.63;;;1.70;;
56255;SDS011;57229;51.432;-2.598;2023-07-13T09:53:00;3.80;;;1.60;;
56255;SDS011;57229;51.432;-2.598;2023-07-13T09:55:37;2.33;;;1.60;;
56255;SDS011;57229;51.432;-2.598;2023-07-13T09:58:09;4.85;;;1.45;;
56255;SDS011;57229;51.432;-2.598;2023-07-13T10:00:41;4.65;;;1.40;;
56255;SDS011;57229;51.432;-2.598;2023-07-13T10:05:44;3.30;;;1.60;;
56255;SDS011;57229;51.432;-2.598;2023-07-13T10:10:52;5.18;;;1.90;;
56255;SDS011;57229;51.432;-2.598;2023-07-13T10:13:32;2.38;;;1.50;;
56255;SDS011;57229;51.432;-2.598;2023-07-13T10:16:01;4.38;;;1.45;;
56255;SDS011;57229;51.432;-2.598;2023-07-13T10:18:30;3.38;;;1.40;;
56255;SDS011;57229;51.432;-2.598;2023-07-13T10:23:42;6.22;;;1.40;;
56255;SDS011;57229;51.432;-2.598;2023-07-13T10:26:13;3.17;;;1.50;;
56255;SDS011;57229;51.432;-2.598;2023-07-13T10:28:43;2.75;;;1.48;;
56255;SDS011;57229;51.432;-2.598;2023-07-13T10:31:13;2.83;;;1.20;;
56255;SDS011;57229;51.432;-2.598;2023-07-13T10:33:40;2.65;;;1.05;;
56255;SDS011;57229;51.432;-2.598;2023-07-13T10:39:05;3.40;;;1.17;;
56255;SDS011;57229;51.432;-2.598;2023-07-13T10:41:34;3.22;;;1.30;;
56255;SDS011;57229;51.432;-2.598;2023-07-13T10:44:04;2.00;;;1.20;;
56255;SDS011;57229;51.432;-2.598;2023-07-13T10:46:34;1.85;;;1.27;;
56255;SDS011;57229;51.432;-2.598;2023-07-13T10:49:04;4.40;;;1.40;;
56255;SDS011;57229;51.432;-2.598;2023-07-13T10:51:32;1.70;;;1.27;;
56255;SDS011;57229;51.432;-2.598;2023-07-13T10:54:10;3.10;;;1.40;;
56255;SDS011;57229;51.432;-2.598;2023-07-13T10:56:41;3.13;;;1.55;;
56255;SDS011;57229;51.432;-2.598;2023-07-13T11:04:21;2.22;;;1.20;;
56255;SDS011;57229;51.432;-2.598;2023-07-13T11:06:50;3.58;;;1.25;;
56255;SDS011;57229;51.432;-2.598;2023-07-13T11:09:37;3.35;;;1.23;;
56255;SDS011;57229;51.432;-2.598;2023-07-13T11:12:09;3.40;;;1.17;;
56255;SDS011;57229;51.432;-2.598;2023-07-13T11:15:14;1.67;;;1.00;;
56255;SDS011;57229;51.432;-2.598;2023-07-13T11:17:53;6.75;;;1.27;;
56255;SDS011;57229;51.432;-2.598;2023-07-13T11:20:46;3.03;;;0.80;;
56255;SDS011;57229;51.432;-2.598;2023-07-13T11:25:41;1.45;;;0.90;;
56255;SDS011;57229;51.432;-2.598;2023-07-13T11:30:37;2.00;;;1.02;;
56255;SDS011;57229;51.432;-2.598;2023-07-13T11:38:55;1.75;;;1.10;;
56255;SDS011;57229;51.432;-2.598;2023-07-13T11:41:15;2.50;;;1.00;;
56255;SDS011;57229;51.432;-2.598;2023-07-13T11:43:51;3.55;;;1.30;;
56255;SDS011;57229;51.432;-2.598;2023-07-13T11:46:20;2.33;;;1.20;;
56255;SDS011;57229;51.432;-2.598;2023-07-13T11:48:50;2.67;;;1.13;;
56255;SDS011;57229;51.432;-2.598;2023-07-13T11:51:19;3.45;;;1.30;;
56255;SDS011;57229;51.432;-2.598;2023-07-13T11:53:51;5.15;;;1.17;;
56255;SDS011;57229;51.432;-2.598;2023-07-13T11:56:18;3.42;;;1.20;;
56255;SDS011;57229;51.432;-2.598;2023-07-13T11:58:47;4.10;;;1.10;;
56255;SDS011;57229;51.432;-2.598;2023-07-13T12:01:25;4.18;;;1.08;;
56255;SDS011;57229;51.432;-2.598;2023-07-13T12:03:57;1.83;;;1.00;;
56255;SDS011;57229;51.432;-2.598;2023-07-13T12:06:32;2.45;;;0.93;;
56255;SDS011;57229;51.432;-2.598;2023-07-13T12:09:01;2.72;;;1.20;;
56255;SDS011;57229;51.432;-2.598;2023-07-13T12:11:29;3.35;;;1.00;;
56255;SDS011;57229;51.432;-2.598;2023-07-13T12:13:55;2.50;;;1.42;;
56255;SDS011;57229;51.432;-2.598;2023-07-13T12:18:47;3.15;;;1.02;;
56255;SDS011;57229;51.432;-2.598;2023-07-13T12:21:14;4.50;;;1.38;;
56255;SDS011;57229;51.432;-2.598;2023-07-13T12:23:43;1.75;;;1.42;;
56255;SDS011;57229;51.432;-2.598;2023-07-13T12:26:10;4.78;;;4.10;;
56255;SDS011;57229;51.432;-2.598;2023-07-13T12:28:38;5.65;;;4.63;;
56255;SDS011;57229;51.432;-2.598;2023-07-13T12:31:22;4.45;;;4.15;;
56255;SDS011;57229;51.432;-2.598;2023-07-13T12:33:59;4.82;;;4.47;;
56255;SDS011;57229;51.432;-2.598;2023-07-13T12:36:26;4.88;;;4.50;;
56255;SDS011;57229;51.432;-2.598;2023-07-13T12:38:57;5.38;;;4.88;;
56255;SDS011;57229;51.432;-2.598;2023-07-13T12:41:29;5.72;;;4.95;;
56255;SDS011;57229;51.432;-2.598;2023-07-13T12:43:55;5.90;;;5.40;;
56255;SDS011;57229;51.432;-2.598;2023-07-13T12:46:21;6.13;;;4.88;;
56255;SDS011;57229;51.432;-2.598;2023-07-13T12:48:51;6.10;;;4.70;;
56255;SDS011;57229;51.432;-2.598;2023-07-13T12:51:20;10.73;;;5.43;;
56255;SDS011;57229;51.432;-2.598;2023-07-13T12:53:48;6.47;;;5.15;;
56255;SDS011;57229;51.432;-2.598;2023-07-13T12:56:24;8.88;;;5.53;;
56255;SDS011;57229;51.432;-2.598;2023-07-13T12:58:58;8.15;;;5.65;;
56255;SDS011;57229;51.432;-2.598;2023-07-13T13:03:53;8.15;;;5.43;;
56255;SDS011;57229;51.432;-2.598;2023-07-13T13:08:51;7.13;;;5.03;;
56255;SDS011;57229;51.432;-2.598;2023-07-13T13:11:19;5.93;;;5.32;;
56255;SDS011;57229;51.432;-2.598;2023-07-13T13:13:45;6.43;;;4.88;;
56255;SDS011;57229;51.432;-2.598;2023-07-13T13:16:17;11.20;;;5.05;;
56255;SDS011;57229;51.432;-2.598;2023-07-13T13:18:44;5.10;;;4.60;;
56255;SDS011;57229;51.432;-2.598;2023-07-13T13:21:10;8.15;;;4.85;;
56255;SDS011;57229;51.432;-2.598;2023-07-13T13:23:36;6.13;;;4.80;;
56255;SDS011;57229;51.432;-2.598;2023-07-13T13:26:02;5.30;;;4.50;;
56255;SDS011;57229;51.432;-2.598;2023-07-13T13:28:33;5.22;;;4.82;;
56255;SDS011;57229;51.432;-2.598;2023-07-13T13:30:58;6.07;;;4.40;;
56255;SDS011;57229;51.432;-2.598;2023-07-13T13:33:24;6.22;;;4.70;;
56255;SDS011;57229;51.432;-2.598;2023-07-13T13:35:49;6.45;;;4.82;;
56255;SDS011;57229;51.432;-2.598;2023-07-13T13:38:17;5.47;;;4.90;;
56255;SDS011;57229;51.432;-2.598;2023-07-13T13:40:50;5.30;;;4.90;;
56255;SDS011;57229;51.432;-2.598;2023-07-13T13:43:22;5.40;;;4.93;;
56255;SDS011;57229;51.432;-2.598;2023-07-13T13:45:56;5.03;;;4.60;;
56255;SDS011;57229;51.432;-2.598;2023-07-13T13:48:34;6.85;;;4.75;;
56255;SDS011;57229;51.432;-2.598;2023-07-13T13:51:01;5.90;;;5.00;;
56255;SDS011;57229;51.432;-2.598;2023-07-13T13:53:39;5.22;;;4.72;;
56255;SDS011;57229;51.432;-2.598;2023-07-13T13:56:05;5.50;;;5.10;;
56255;SDS011;57229;51.432;-2.598;2023-07-13T13:58:31;5.60;;;5.18;;
56255;SDS011;57229;51.432;-2.598;2023-07-13T14:00:56;5.32;;;4.80;;
56255;SDS011;57229;51.432;-2.598;2023-07-13T14:03:23;5.70;;;5.03;;
56255;SDS011;57229;51.432;-2.598;2023-07-13T14:05:49;5.45;;;5.00;;
56255;SDS011;57229;51.432;-2.598;2023-07-13T14:08:15;8.93;;;5.50;;
56255;SDS011;57229;51.432;-2.598;2023-07-13T14:10:48;6.65;;;5.22;;
56255;SDS011;57229;51.432;-2.598;2023-07-13T14:13:16;5.97;;;5.10;;
56255;SDS011;57229;51.432;-2.598;2023-07-13T14:15:51;5.30;;;4.80;;
56255;SDS011;57229;51.432;-2.598;2023-07-13T14:18:17;6.20;;;4.90;;
56255;SDS011;57229;51.432;-2.598;2023-07-13T14:20:46;6.95;;;4.90;;
56255;SDS011;57229;51.432;-2.598;2023-07-13T14:23:13;5.38;;;4.80;;
56255;SDS011;57229;51.432;-2.598;2023-07-13T14:25:40;5.53;;;4.82;;
56255;SDS011;57229;51.432;-2.598;2023-07-13T14:28:20;5.13;;;4.72;;
56255;SDS011;57229;51.432;-2.598;2023-07-13T14:30:51;5.80;;;5.28;;
56255;SDS011;57229;51.432;-2.598;2023-07-13T14:33:19;8.13;;;5.25;;
56255;SDS011;57229;51.432;-2.598;2023-07-13T14:35:45;5.40;;;4.80;;
56255;SDS011;57229;51.432;-2.598;2023-07-13T14:38:12;6.20;;;5.18;;
56255;SDS011;57229;51.432;-2.598;2023-07-13T14:40:41;9.32;;;5.68;;
56255;SDS011;57229;51.432;-2.598;2023-07-13T14:43:10;5.28;;;4.78;;
56255;SDS011;57229;51.432;-2.598;2023-07-13T14:45:40;5.47;;;4.93;;
56255;SDS011;57229;51.432;-2.598;2023-07-13T14:48:14;6.72;;;5.00;;
56255;SDS011;57229;51.432;-2.598;2023-07-13T14:50:45;9.20;;;5.05;;
56255;SDS011;57229;51.432;-2.598;2023-07-13T14:53:11;5.50;;;5.00;;
56255;SDS011;57229;51.432;-2.598;2023-07-13T14:55:38;5.03;;;4.63;;
56255;SDS011;57229;51.432;-2.598;2023-07-13T14:58:04;5.95;;;5.30;;
56255;SDS011;57229;51.432;-2.598;2023-07-13T15:00:30;9.48;;;5.68;;
56255;SDS011;57229;51.432;-2.598;2023-07-13T15:02:56;7.60;;;5.43;;
56255;SDS011;57229;51.432;-2.598;2023-07-13T15:05:25;7.32;;;5.03;;
56255;SDS011;57229;51.432;-2.598;2023-07-13T15:07:57;6.10;;;5.60;;
56255;SDS011;57229;51.432;-2.598;2023-07-13T15:10:26;5.40;;;4.90;;
56255;SDS011;57229;51.432;-2.598;2023-07-13T15:13:01;6.63;;;5.15;;
56255;SDS011;57229;51.432;-2.598;2023-07-13T15:15:39;7.47;;;5.20;;
56255;SDS011;57229;51.432;-2.598;2023-07-13T15:18:09;9.05;;;5.03;;
56255;SDS011;57229;51.432;-2.598;2023-07-13T15:20:36;5.28;;;4.80;;
56255;SDS011;57229;51.432;-2.598;2023-07-13T15:23:02;5.45;;;4.95;;
56255;SDS011;57229;51.432;-2.598;2023-07-13T15:25:29;9.30;;;5.53;;
56255;SDS011;57229;51.432;-2.598;2023-07-13T15:27:56;5.53;;;5.00;;